Richmond-upon-Thames, United Kingdom
Current Conditions -  °F | °C
As of 5:50 PM on Thursday 30 Oct 2014 (Local Time) from EGLL Reporting Station
Clear Clear  
Wind Chill: 61°   Ceiling: Unl
Heat Index: 61°   Visibility: 4mi
Dew Point: 57°   Wind: 7mph
Humidity: 88%   Direction: 150°SSE
Pressure: 30.06"   Gusts: NA
Location:  51.46°N, 0.3°W
Report Text: EGLL 301750Z 15006KT 110V200 7000 NSC 16/14 Q1018 NOSIG
Loading
Personal Weather Stations






























Interactive Weather Map New forecast layout! Learn more

10-Day Weather Forecast

Advertisements
Track Severe Weather on mobile